LFPT 091030Z AUTO 17005KT 140V200 4200 BR OVC004 05/04 Q1009

ElémentsDécodage
LFPT Station météo située sur l'aérodrome de PONTOISE Cormeille-en-Vexin
091030Z émis le 09 du mois à 10h30 UTC
AUTO Bulletin édité par un automate
17005KT vent du 170°, 05 noeuds
140V200 vent de direction variable entre 140° et 200°
4200 visibilité horizontale de 4200 mètres
BR brume
OVC004 couverture nuageuse totale (8/8) à 400 pieds
05/04 température 05°C, point de rosée 04°C
 soit une humidité relative de 93%
Q1009 la pression au niveau de la mer (QNH) est de 1009 hPa